AAA585 YBRM-YPDN
Flight info
| Callsign | AAA585 |
|---|---|
| Flight time | 1h 30m |
| Altitude | 37000 |
| Route | BRM J93 CIN J151 HELLI DCT WANGI |
| Aircraft | B738/M-SDE2E3FGHIRWXY/LB1 |
Departure
| Time | 2026-05-06 07:59 |
|---|---|
| Airport | Broome International Airport (YBRM) |
Arrival
| Time | 2026-05-06 09:29 |
|---|---|
| Airport | Darwin International Airport / RAAF Darwin (YPDN) |
| Time | Latitude | Longitude | Altitude | Speed | Heading |
|---|---|---|---|---|---|
| 2026-05-06 07:30 | -17.95314 | 122.23318 | 34 ft | 0 kts | 71° |
| 2026-05-06 07:50 | -17.95317 | 122.23308 | 36 ft | 1 kts | 70° |
| 2026-05-06 07:50 | -17.95325 | 122.23288 | 35 ft | 3 kts | 54° |
| 2026-05-06 07:50 | -17.95341 | 122.23271 | 34 ft | 3 kts | 29° |
| 2026-05-06 07:51 | -17.95361 | 122.23262 | 35 ft | 1 kts | 13° |
| 2026-05-06 07:51 | -17.95366 | 122.23261 | 35 ft | 0 kts | 13° |
| 2026-05-06 07:53 | -17.95365 | 122.23261 | 35 ft | 0 kts | 10° |
| 2026-05-06 07:53 | -17.95350 | 122.23260 | 35 ft | 3 kts | 359° |
| 2026-05-06 07:54 | -17.95324 | 122.23268 | 36 ft | 5 kts | 19° |
| 2026-05-06 07:54 | -17.95284 | 122.23281 | 36 ft | 7 kts | 14° |
| 2026-05-06 07:54 | -17.95232 | 122.23294 | 36 ft | 8 kts | 16° |
| 2026-05-06 07:54 | -17.95194 | 122.23332 | 35 ft | 8 kts | 62° |
| 2026-05-06 07:55 | -17.95186 | 122.23405 | 36 ft | 7 kts | 96° |
| 2026-05-06 07:55 | -17.95180 | 122.23440 | 36 ft | 7 kts | 65° |
| 2026-05-06 07:55 | -17.95161 | 122.23457 | 34 ft | 0 kts | 17° |
| 2026-05-06 07:55 | -17.95155 | 122.23459 | 35 ft | 4 kts | 14° |
| 2026-05-06 07:56 | -17.95105 | 122.23473 | 32 ft | 11 kts | 19° |
| 2026-05-06 07:56 | -17.95093 | 122.23556 | 30 ft | 13 kts | 105° |
| 2026-05-06 07:56 | -17.95116 | 122.23646 | 29 ft | 13 kts | 105° |
| 2026-05-06 07:56 | -17.95125 | 122.23736 | 29 ft | 11 kts | 77° |
| 2026-05-06 07:57 | -17.95135 | 122.23791 | 29 ft | 7 kts | 152° |
| 2026-05-06 07:57 | -17.95154 | 122.23773 | 29 ft | 4 kts | 274° |
| 2026-05-06 07:57 | -17.95143 | 122.23747 | 29 ft | 4 kts | 292° |
| 2026-05-06 07:57 | -17.95140 | 122.23735 | 29 ft | 0 kts | 283° |
| 2026-05-06 07:58 | -17.95131 | 122.23698 | 29 ft | 28 kts | 285° |
| 2026-05-06 07:58 | -17.95011 | 122.23245 | 36 ft | 99 kts | 285° |
| 2026-05-06 07:58 | -17.94772 | 122.22345 | 58 ft | 155 kts | 285° |
| 2026-05-06 07:59 | -17.94457 | 122.21154 | 528 ft | 172 kts | 285° |
| 2026-05-06 07:59 | -17.94152 | 122.19967 | 1478 ft | 167 kts | 286° |
| 2026-05-06 07:59 | -17.93830 | 122.18718 | 2022 ft | 184 kts | 285° |
| 2026-05-06 07:59 | -17.93346 | 122.17415 | 2420 ft | 207 kts | 307° |
| 2026-05-06 08:00 | -17.92156 | 122.16484 | 2604 ft | 228 kts | 341° |
| 2026-05-06 08:00 | -17.90559 | 122.16417 | 3038 ft | 234 kts | 15° |
| 2026-05-06 08:00 | -17.89162 | 122.17274 | 3608 ft | 238 kts | 47° |
| 2026-05-06 08:00 | -17.88337 | 122.18850 | 3931 ft | 262 kts | 75° |
| 2026-05-06 08:01 | -17.87961 | 122.20760 | 4555 ft | 271 kts | 79° |
| 2026-05-06 08:01 | -17.87627 | 122.22721 | 5314 ft | 274 kts | 79° |
| 2026-05-06 08:01 | -17.87304 | 122.24679 | 6094 ft | 277 kts | 79° |
| 2026-05-06 08:01 | -17.86972 | 122.26685 | 6833 ft | 280 kts | 79° |
| 2026-05-06 08:02 | -17.86633 | 122.28718 | 7545 ft | 284 kts | 79° |
| 2026-05-06 08:02 | -17.86286 | 122.30775 | 8275 ft | 288 kts | 79° |
| 2026-05-06 08:02 | -17.85932 | 122.32855 | 9015 ft | 291 kts | 79° |
| 2026-05-06 08:02 | -17.85570 | 122.34964 | 9772 ft | 294 kts | 79° |
| 2026-05-06 08:03 | -17.85205 | 122.37086 | 10403 ft | 300 kts | 79° |
| 2026-05-06 08:03 | -17.84818 | 122.39324 | 10552 ft | 323 kts | 79° |
| 2026-05-06 08:03 | -17.84406 | 122.41700 | 10935 ft | 337 kts | 79° |
| 2026-05-06 08:03 | -17.83981 | 122.44149 | 11497 ft | 345 kts | 79° |
| 2026-05-06 08:04 | -17.83545 | 122.46633 | 12097 ft | 345 kts | 78° |
| 2026-05-06 08:04 | -17.83101 | 122.49118 | 12564 ft | 348 kts | 78° |
| 2026-05-06 08:04 | -17.82652 | 122.51639 | 12911 ft | 354 kts | 78° |
| 2026-05-06 08:04 | -17.82201 | 122.54184 | 13418 ft | 355 kts | 79° |
| 2026-05-06 08:05 | -17.81751 | 122.56739 | 13805 ft | 359 kts | 78° |
| 2026-05-06 08:05 | -17.81297 | 122.59330 | 14171 ft | 362 kts | 79° |
| 2026-05-06 08:05 | -17.80846 | 122.61908 | 14479 ft | 366 kts | 79° |
| 2026-05-06 08:05 | -17.80382 | 122.64553 | 14805 ft | 370 kts | 79° |
| 2026-05-06 08:06 | -17.79915 | 122.67225 | 15116 ft | 375 kts | 78° |
| 2026-05-06 08:06 | -17.79442 | 122.69926 | 15442 ft | 378 kts | 78° |
| 2026-05-06 08:06 | -17.78964 | 122.72647 | 15773 ft | 381 kts | 78° |
| 2026-05-06 08:06 | -17.78482 | 122.75391 | 16087 ft | 384 kts | 78° |
| 2026-05-06 08:07 | -17.77997 | 122.78155 | 16377 ft | 387 kts | 78° |
| 2026-05-06 08:07 | -17.77507 | 122.80942 | 16673 ft | 390 kts | 78° |
| 2026-05-06 08:07 | -17.77012 | 122.83756 | 16971 ft | 393 kts | 78° |
| 2026-05-06 08:07 | -17.76514 | 122.86584 | 17263 ft | 396 kts | 78° |
| 2026-05-06 08:08 | -17.76012 | 122.89436 | 17542 ft | 399 kts | 78° |
| 2026-05-06 08:08 | -17.75507 | 122.92295 | 17890 ft | 399 kts | 78° |
| 2026-05-06 08:08 | -17.75000 | 122.95169 | 18161 ft | 402 kts | 78° |
| 2026-05-06 08:08 | -17.74495 | 122.98028 | 18388 ft | 405 kts | 78° |
| 2026-05-06 08:09 | -17.73979 | 123.00940 | 18612 ft | 408 kts | 78° |
| 2026-05-06 08:09 | -17.73460 | 123.03871 | 18846 ft | 410 kts | 78° |
| 2026-05-06 08:09 | -17.72938 | 123.06817 | 19076 ft | 412 kts | 78° |
| 2026-05-06 08:09 | -17.72412 | 123.09783 | 19295 ft | 414 kts | 78° |
| 2026-05-06 08:10 | -17.71884 | 123.12760 | 19502 ft | 416 kts | 78° |
| 2026-05-06 08:10 | -17.71352 | 123.15755 | 19707 ft | 419 kts | 78° |
| 2026-05-06 08:10 | -17.70817 | 123.18762 | 19898 ft | 421 kts | 78° |
| 2026-05-06 08:10 | -17.70278 | 123.21791 | 20099 ft | 423 kts | 78° |
| 2026-05-06 08:11 | -17.69736 | 123.24835 | 20306 ft | 425 kts | 77° |
| 2026-05-06 08:11 | -17.69193 | 123.27881 | 20495 ft | 425 kts | 78° |
| 2026-05-06 08:11 | -17.68652 | 123.30962 | 20701 ft | 433 kts | 78° |
| 2026-05-06 08:11 | -17.68104 | 123.34078 | 21127 ft | 436 kts | 78° |
| 2026-05-06 08:12 | -17.67548 | 123.37221 | 21665 ft | 439 kts | 77° |
| 2026-05-06 08:12 | -17.66986 | 123.40375 | 22200 ft | 442 kts | 77° |
| 2026-05-06 08:12 | -17.66416 | 123.43561 | 22675 ft | 447 kts | 77° |
| 2026-05-06 08:12 | -17.65837 | 123.46782 | 23109 ft | 452 kts | 77° |
| 2026-05-06 08:13 | -17.65251 | 123.50039 | 23538 ft | 457 kts | 77° |
| 2026-05-06 08:13 | -17.64667 | 123.53288 | 23898 ft | 461 kts | 77° |
| 2026-05-06 08:13 | -17.64070 | 123.56600 | 24291 ft | 464 kts | 77° |
| 2026-05-06 08:13 | -17.63468 | 123.59943 | 24689 ft | 467 kts | 77° |
| 2026-05-06 08:14 | -17.62862 | 123.63305 | 25052 ft | 471 kts | 77° |
| 2026-05-06 08:14 | -17.62251 | 123.66691 | 25419 ft | 475 kts | 77° |
| 2026-05-06 08:14 | -17.61634 | 123.70105 | 25774 ft | 478 kts | 77° |
| 2026-05-06 08:14 | -17.61012 | 123.73545 | 26140 ft | 482 kts | 77° |
| 2026-05-06 08:15 | -17.60385 | 123.77010 | 26456 ft | 485 kts | 77° |
| 2026-05-06 08:15 | -17.59750 | 123.80496 | 26800 ft | 488 kts | 76° |
| 2026-05-06 08:15 | -17.58835 | 123.83924 | 27119 ft | 489 kts | 66° |
| 2026-05-06 08:15 | -17.57467 | 123.87131 | 27485 ft | 487 kts | 57° |
| 2026-05-06 08:16 | -17.55652 | 123.90109 | 27798 ft | 484 kts | 49° |
| 2026-05-06 08:16 | -17.53643 | 123.92956 | 28129 ft | 487 kts | 47° |
| 2026-05-06 08:16 | -17.51601 | 123.95800 | 28440 ft | 490 kts | 47° |
| 2026-05-06 08:16 | -17.49541 | 123.98668 | 28716 ft | 494 kts | 47° |
| 2026-05-06 08:17 | -17.47478 | 124.01559 | 29015 ft | 496 kts | 47° |
| 2026-05-06 08:17 | -17.45420 | 124.04467 | 29360 ft | 498 kts | 48° |
| 2026-05-06 08:17 | -17.43360 | 124.07395 | 29652 ft | 501 kts | 48° |
| 2026-05-06 08:17 | -17.41288 | 124.10349 | 29897 ft | 504 kts | 48° |
| 2026-05-06 08:18 | -17.39207 | 124.13319 | 30128 ft | 507 kts | 48° |
| 2026-05-06 08:18 | -17.37117 | 124.16306 | 30355 ft | 510 kts | 48° |
| 2026-05-06 08:18 | -17.35012 | 124.19311 | 30581 ft | 512 kts | 48° |
| 2026-05-06 08:18 | -17.32901 | 124.22322 | 30793 ft | 515 kts | 48° |
| 2026-05-06 08:19 | -17.30781 | 124.25345 | 31018 ft | 517 kts | 49° |
| 2026-05-06 08:19 | -17.28649 | 124.28382 | 31226 ft | 519 kts | 49° |
| 2026-05-06 08:19 | -17.26506 | 124.31432 | 31432 ft | 521 kts | 49° |
| 2026-05-06 08:19 | -17.24351 | 124.34498 | 31634 ft | 524 kts | 49° |
| 2026-05-06 08:20 | -17.22187 | 124.37574 | 31869 ft | 525 kts | 49° |
| 2026-05-06 08:20 | -17.20054 | 124.40606 | 32151 ft | 525 kts | 49° |
| 2026-05-06 08:20 | -17.17892 | 124.43681 | 32456 ft | 524 kts | 49° |
| 2026-05-06 08:20 | -17.15729 | 124.46753 | 32728 ft | 525 kts | 49° |
| 2026-05-06 08:21 | -17.13563 | 124.49828 | 32990 ft | 526 kts | 49° |
| 2026-05-06 08:21 | -17.11391 | 124.52909 | 33277 ft | 526 kts | 49° |
| 2026-05-06 08:21 | -17.09219 | 124.55990 | 33564 ft | 526 kts | 49° |
| 2026-05-06 08:21 | -17.07049 | 124.59066 | 33840 ft | 526 kts | 49° |
| 2026-05-06 08:22 | -17.04877 | 124.62143 | 34110 ft | 525 kts | 49° |
| 2026-05-06 08:22 | -17.02711 | 124.65212 | 34424 ft | 524 kts | 49° |
| 2026-05-06 08:22 | -17.00552 | 124.68269 | 34716 ft | 522 kts | 49° |
| 2026-05-06 08:22 | -16.98392 | 124.71325 | 34968 ft | 522 kts | 49° |
| 2026-05-06 08:23 | -16.96238 | 124.74379 | 35182 ft | 521 kts | 49° |
| 2026-05-06 08:23 | -16.94093 | 124.77420 | 35428 ft | 519 kts | 49° |
| 2026-05-06 08:23 | -16.91953 | 124.80449 | 35624 ft | 518 kts | 49° |
| 2026-05-06 08:23 | -16.89840 | 124.83436 | 35807 ft | 517 kts | 49° |
| 2026-05-06 08:24 | -16.87703 | 124.86452 | 35979 ft | 517 kts | 49° |
| 2026-05-06 08:24 | -16.85564 | 124.89470 | 36174 ft | 516 kts | 49° |
| 2026-05-06 08:24 | -16.83432 | 124.92477 | 36381 ft | 514 kts | 49° |
| 2026-05-06 08:24 | -16.81304 | 124.95476 | 36546 ft | 514 kts | 49° |
| 2026-05-06 08:25 | -16.79176 | 124.98476 | 36696 ft | 514 kts | 49° |
| 2026-05-06 08:25 | -16.77048 | 125.01472 | 36845 ft | 514 kts | 49° |
| 2026-05-06 08:25 | -16.72776 | 125.07484 | 36919 ft | 519 kts | 49° |
| 2026-05-06 08:26 | -16.68794 | 125.13082 | 36903 ft | 525 kts | 49° |
| 2026-05-06 08:26 | -16.64418 | 125.19232 | 36930 ft | 530 kts | 49° |
| 2026-05-06 08:27 | -16.59993 | 125.25447 | 36931 ft | 536 kts | 50° |
| 2026-05-06 08:27 | -16.55565 | 125.31662 | 36925 ft | 539 kts | 49° |
| 2026-05-06 08:28 | -16.51079 | 125.37950 | 36934 ft | 541 kts | 49° |
| 2026-05-06 08:28 | -16.46577 | 125.44256 | 36921 ft | 543 kts | 49° |
| 2026-05-06 08:29 | -16.42772 | 125.49582 | 36933 ft | 543 kts | 49° |
| 2026-05-06 08:29 | -16.38255 | 125.55902 | 36932 ft | 544 kts | 50° |
| 2026-05-06 08:30 | -16.33733 | 125.62223 | 36945 ft | 544 kts | 49° |
| 2026-05-06 08:30 | -16.29209 | 125.68539 | 36918 ft | 544 kts | 50° |
| 2026-05-06 08:31 | -16.24743 | 125.74768 | 36937 ft | 543 kts | 50° |
| 2026-05-06 08:31 | -16.20248 | 125.81032 | 36945 ft | 543 kts | 50° |
| 2026-05-06 08:32 | -16.15729 | 125.87324 | 36939 ft | 543 kts | 50° |
| 2026-05-06 08:32 | -16.11205 | 125.93617 | 36943 ft | 542 kts | 50° |
| 2026-05-06 08:33 | -16.06688 | 125.99896 | 36942 ft | 542 kts | 50° |
| 2026-05-06 08:33 | -16.02169 | 126.06171 | 36942 ft | 542 kts | 50° |
| 2026-05-06 08:34 | -15.95386 | 126.15582 | 36935 ft | 542 kts | 50° |
| 2026-05-06 08:35 | -15.90911 | 126.21790 | 36904 ft | 529 kts | 50° |
| 2026-05-06 08:35 | -15.88736 | 126.24806 | 36920 ft | 514 kts | 49° |
| 2026-05-06 08:35 | -15.86611 | 126.27746 | 36923 ft | 505 kts | 49° |
| 2026-05-06 08:36 | -15.82362 | 126.33606 | 36951 ft | 512 kts | 49° |
| 2026-05-06 08:36 | -15.78048 | 126.39555 | 36949 ft | 519 kts | 49° |
| 2026-05-06 08:37 | -15.73704 | 126.45555 | 36925 ft | 518 kts | 49° |
| 2026-05-06 08:37 | -15.70129 | 126.50496 | 36929 ft | 512 kts | 49° |
| 2026-05-06 08:38 | -15.65857 | 126.56393 | 36940 ft | 511 kts | 49° |
| 2026-05-06 08:38 | -15.61548 | 126.62326 | 36951 ft | 517 kts | 49° |
| 2026-05-06 08:39 | -15.57216 | 126.68291 | 36934 ft | 517 kts | 49° |
| 2026-05-06 08:39 | -15.52905 | 126.74226 | 36942 ft | 514 kts | 49° |
| 2026-05-06 08:40 | -15.48638 | 126.80095 | 36936 ft | 512 kts | 49° |
| 2026-05-06 08:40 | -15.44359 | 126.85974 | 36942 ft | 510 kts | 49° |
| 2026-05-06 08:41 | -15.40091 | 126.91833 | 36939 ft | 508 kts | 49° |
| 2026-05-06 08:41 | -15.35821 | 126.97690 | 36955 ft | 511 kts | 49° |
| 2026-05-06 08:42 | -15.31504 | 127.03604 | 36954 ft | 517 kts | 49° |
| 2026-05-06 08:42 | -15.27162 | 127.09551 | 36940 ft | 517 kts | 49° |
| 2026-05-06 08:43 | -15.22829 | 127.15484 | 36935 ft | 516 kts | 49° |
| 2026-05-06 08:43 | -15.18538 | 127.21354 | 36935 ft | 512 kts | 49° |
| 2026-05-06 08:44 | -15.14248 | 127.27217 | 36947 ft | 510 kts | 49° |
| 2026-05-06 08:44 | -15.09965 | 127.33066 | 36952 ft | 509 kts | 49° |
| 2026-05-06 08:45 | -15.05690 | 127.38898 | 36946 ft | 510 kts | 49° |
| 2026-05-06 08:45 | -15.01397 | 127.44751 | 36942 ft | 511 kts | 49° |
| 2026-05-06 08:46 | -14.97099 | 127.50607 | 36943 ft | 511 kts | 49° |
| 2026-05-06 08:46 | -14.92798 | 127.56464 | 36934 ft | 510 kts | 49° |
| 2026-05-06 08:47 | -14.88511 | 127.62299 | 36958 ft | 509 kts | 49° |
| 2026-05-06 08:47 | -14.84242 | 127.68102 | 36947 ft | 510 kts | 49° |
| 2026-05-06 08:48 | -14.79941 | 127.73938 | 36938 ft | 510 kts | 49° |
| 2026-05-06 08:48 | -14.75644 | 127.79770 | 36948 ft | 510 kts | 49° |
| 2026-05-06 08:49 | -14.71344 | 127.85602 | 36940 ft | 509 kts | 49° |
| 2026-05-06 08:49 | -14.67046 | 127.91427 | 36936 ft | 509 kts | 49° |
| 2026-05-06 08:50 | -14.62753 | 127.97242 | 36930 ft | 508 kts | 49° |
| 2026-05-06 08:50 | -14.58502 | 128.02996 | 36937 ft | 506 kts | 49° |
| 2026-05-06 08:51 | -14.54229 | 128.08774 | 36938 ft | 506 kts | 49° |
| 2026-05-06 08:51 | -14.49951 | 128.14555 | 36935 ft | 506 kts | 49° |
| 2026-05-06 08:52 | -14.45669 | 128.20335 | 36935 ft | 506 kts | 49° |
| 2026-05-06 08:52 | -14.41387 | 128.26105 | 36937 ft | 506 kts | 49° |
| 2026-05-06 08:53 | -14.37107 | 128.31874 | 36936 ft | 506 kts | 49° |
| 2026-05-06 08:53 | -14.32856 | 128.37603 | 36931 ft | 506 kts | 49° |
| 2026-05-06 08:54 | -14.28572 | 128.43372 | 36934 ft | 506 kts | 49° |
| 2026-05-06 08:54 | -14.24293 | 128.49132 | 36937 ft | 506 kts | 49° |
| 2026-05-06 08:55 | -14.20010 | 128.54899 | 36927 ft | 506 kts | 49° |
| 2026-05-06 08:55 | -14.15737 | 128.60653 | 36932 ft | 506 kts | 49° |
| 2026-05-06 08:56 | -14.11479 | 128.66374 | 36923 ft | 506 kts | 49° |
| 2026-05-06 08:56 | -14.07188 | 128.72127 | 36928 ft | 506 kts | 49° |
| 2026-05-06 08:57 | -14.02905 | 128.77874 | 36929 ft | 505 kts | 49° |
| 2026-05-06 08:57 | -13.98627 | 128.83614 | 36915 ft | 505 kts | 49° |
| 2026-05-06 08:58 | -13.94354 | 128.89345 | 36917 ft | 504 kts | 49° |
| 2026-05-06 08:58 | -13.90089 | 128.95058 | 36919 ft | 502 kts | 49° |
| 2026-05-06 08:59 | -13.85829 | 129.00758 | 36923 ft | 501 kts | 49° |
| 2026-05-06 08:59 | -13.81609 | 129.06392 | 36922 ft | 500 kts | 49° |
| 2026-05-06 08:59 | -13.79476 | 129.09239 | 36649 ft | 506 kts | 49° |
| 2026-05-06 09:00 | -13.77310 | 129.12136 | 36314 ft | 514 kts | 49° |
| 2026-05-06 09:00 | -13.75119 | 129.15067 | 35903 ft | 516 kts | 49° |
| 2026-05-06 09:00 | -13.72942 | 129.17980 | 35472 ft | 511 kts | 49° |
| 2026-05-06 09:00 | -13.70788 | 129.20861 | 35048 ft | 506 kts | 49° |
| 2026-05-06 09:01 | -13.68650 | 129.23718 | 34636 ft | 502 kts | 49° |
| 2026-05-06 09:01 | -13.66526 | 129.26554 | 34192 ft | 499 kts | 49° |
| 2026-05-06 09:01 | -13.64418 | 129.29366 | 33753 ft | 495 kts | 49° |
| 2026-05-06 09:01 | -13.62322 | 129.32159 | 33277 ft | 491 kts | 49° |
| 2026-05-06 09:02 | -13.60244 | 129.34930 | 32860 ft | 487 kts | 49° |
| 2026-05-06 09:02 | -13.58187 | 129.37670 | 32441 ft | 482 kts | 49° |
| 2026-05-06 09:02 | -13.56148 | 129.40387 | 32030 ft | 478 kts | 48° |
| 2026-05-06 09:02 | -13.54128 | 129.43077 | 31640 ft | 473 kts | 48° |
| 2026-05-06 09:03 | -13.52122 | 129.45748 | 31245 ft | 469 kts | 48° |
| 2026-05-06 09:03 | -13.50135 | 129.48392 | 30856 ft | 466 kts | 48° |
| 2026-05-06 09:03 | -13.48165 | 129.51012 | 30465 ft | 462 kts | 48° |
| 2026-05-06 09:03 | -13.46206 | 129.53617 | 30059 ft | 458 kts | 48° |
| 2026-05-06 09:04 | -13.44275 | 129.56187 | 29606 ft | 449 kts | 48° |
| 2026-05-06 09:04 | -13.42387 | 129.58698 | 29176 ft | 440 kts | 48° |
| 2026-05-06 09:04 | -13.40543 | 129.61152 | 28787 ft | 429 kts | 48° |
| 2026-05-06 09:04 | -13.38740 | 129.63548 | 28403 ft | 418 kts | 48° |
| 2026-05-06 09:05 | -13.37004 | 129.65854 | 28049 ft | 410 kts | 48° |
| 2026-05-06 09:05 | -13.35267 | 129.68156 | 27684 ft | 407 kts | 48° |
| 2026-05-06 09:05 | -13.33534 | 129.70453 | 27309 ft | 404 kts | 48° |
| 2026-05-06 09:05 | -13.31817 | 129.72730 | 26945 ft | 402 kts | 48° |
| 2026-05-06 09:06 | -13.30110 | 129.74995 | 26577 ft | 399 kts | 48° |
| 2026-05-06 09:06 | -13.28411 | 129.77248 | 26207 ft | 397 kts | 48° |
| 2026-05-06 09:06 | -13.26723 | 129.79487 | 25852 ft | 395 kts | 48° |
| 2026-05-06 09:06 | -13.25182 | 129.81814 | 25471 ft | 397 kts | 59° |
| 2026-05-06 09:07 | -13.24066 | 129.84404 | 25179 ft | 395 kts | 69° |
| 2026-05-06 09:07 | -13.23395 | 129.87128 | 24957 ft | 392 kts | 77° |
| 2026-05-06 09:07 | -13.22904 | 129.89863 | 24739 ft | 388 kts | 78° |
| 2026-05-06 09:07 | -13.22440 | 129.92585 | 24509 ft | 385 kts | 78° |
| 2026-05-06 09:08 | -13.21986 | 129.95252 | 24272 ft | 383 kts | 78° |
| 2026-05-06 09:08 | -13.21522 | 129.97931 | 23962 ft | 380 kts | 78° |
| 2026-05-06 09:08 | -13.21050 | 130.00603 | 23624 ft | 379 kts | 77° |
| 2026-05-06 09:08 | -13.20574 | 130.03266 | 23211 ft | 379 kts | 77° |
| 2026-05-06 09:09 | -13.20096 | 130.05917 | 22827 ft | 377 kts | 77° |
| 2026-05-06 09:09 | -13.19618 | 130.08555 | 22451 ft | 375 kts | 77° |
| 2026-05-06 09:09 | -13.19142 | 130.11176 | 22089 ft | 373 kts | 77° |
| 2026-05-06 09:09 | -13.18664 | 130.13787 | 21719 ft | 371 kts | 77° |
| 2026-05-06 09:10 | -13.18190 | 130.16380 | 21360 ft | 369 kts | 77° |
| 2026-05-06 09:10 | -13.17717 | 130.18963 | 21008 ft | 367 kts | 78° |
| 2026-05-06 09:10 | -13.17247 | 130.21537 | 20650 ft | 366 kts | 78° |
| 2026-05-06 09:10 | -13.16780 | 130.24097 | 20297 ft | 364 kts | 78° |
| 2026-05-06 09:11 | -13.16317 | 130.26650 | 19934 ft | 364 kts | 78° |
| 2026-05-06 09:11 | -13.15860 | 130.29184 | 19565 ft | 363 kts | 78° |
| 2026-05-06 09:11 | -13.15399 | 130.31727 | 19204 ft | 362 kts | 78° |
| 2026-05-06 09:11 | -13.14937 | 130.34265 | 18857 ft | 361 kts | 78° |
| 2026-05-06 09:12 | -13.14480 | 130.36764 | 18501 ft | 361 kts | 78° |
| 2026-05-06 09:12 | -13.14018 | 130.39292 | 18132 ft | 360 kts | 78° |
| 2026-05-06 09:12 | -13.13555 | 130.41818 | 17735 ft | 359 kts | 78° |
| 2026-05-06 09:12 | -13.12741 | 130.44213 | 17335 ft | 355 kts | 56° |
| 2026-05-06 09:13 | -13.11166 | 130.46113 | 17031 ft | 347 kts | 37° |
| 2026-05-06 09:13 | -13.09190 | 130.47508 | 16711 ft | 342 kts | 30° |
| 2026-05-06 09:13 | -13.07180 | 130.48792 | 16363 ft | 340 kts | 29° |
| 2026-05-06 09:13 | -13.05170 | 130.50057 | 16020 ft | 338 kts | 29° |
| 2026-05-06 09:14 | -13.03173 | 130.51319 | 15683 ft | 336 kts | 30° |
| 2026-05-06 09:14 | -13.01190 | 130.52584 | 15338 ft | 335 kts | 30° |
| 2026-05-06 09:14 | -12.99220 | 130.53849 | 14998 ft | 333 kts | 30° |
| 2026-05-06 09:14 | -12.97259 | 130.55113 | 14658 ft | 332 kts | 30° |
| 2026-05-06 09:15 | -12.95313 | 130.56372 | 14325 ft | 331 kts | 30° |
| 2026-05-06 09:15 | -12.93366 | 130.57631 | 13980 ft | 330 kts | 31° |
| 2026-05-06 09:15 | -12.91427 | 130.58886 | 13614 ft | 330 kts | 31° |
| 2026-05-06 09:15 | -12.89489 | 130.60142 | 13243 ft | 328 kts | 31° |
| 2026-05-06 09:16 | -12.87568 | 130.61385 | 12895 ft | 326 kts | 31° |
| 2026-05-06 09:16 | -12.85654 | 130.62623 | 12549 ft | 324 kts | 31° |
| 2026-05-06 09:16 | -12.83758 | 130.63850 | 12234 ft | 321 kts | 31° |
| 2026-05-06 09:16 | -12.81902 | 130.65050 | 11928 ft | 318 kts | 31° |
| 2026-05-06 09:17 | -12.80038 | 130.66255 | 11609 ft | 316 kts | 31° |
| 2026-05-06 09:17 | -12.78185 | 130.67452 | 11282 ft | 314 kts | 32° |
| 2026-05-06 09:17 | -12.76339 | 130.68645 | 10970 ft | 312 kts | 32° |
| 2026-05-06 09:17 | -12.74504 | 130.69831 | 10646 ft | 311 kts | 32° |
| 2026-05-06 09:18 | -12.72679 | 130.71010 | 10327 ft | 309 kts | 32° |
| 2026-05-06 09:18 | -12.70865 | 130.72182 | 10088 ft | 305 kts | 33° |
| 2026-05-06 09:18 | -12.69097 | 130.73324 | 9952 ft | 297 kts | 33° |
| 2026-05-06 09:18 | -12.67354 | 130.74450 | 9658 ft | 295 kts | 33° |
| 2026-05-06 09:19 | -12.65623 | 130.75569 | 9374 ft | 293 kts | 33° |
| 2026-05-06 09:19 | -12.63902 | 130.76680 | 9063 ft | 292 kts | 34° |
| 2026-05-06 09:19 | -12.62191 | 130.77786 | 8763 ft | 290 kts | 33° |
| 2026-05-06 09:19 | -12.60490 | 130.78884 | 8471 ft | 288 kts | 34° |
| 2026-05-06 09:20 | -12.58799 | 130.79977 | 8184 ft | 286 kts | 34° |
| 2026-05-06 09:20 | -12.57119 | 130.81061 | 7900 ft | 285 kts | 34° |
| 2026-05-06 09:20 | -12.55461 | 130.82130 | 7610 ft | 277 kts | 35° |
| 2026-05-06 09:20 | -12.53859 | 130.83162 | 7349 ft | 268 kts | 35° |
| 2026-05-06 09:21 | -12.52323 | 130.84151 | 7119 ft | 259 kts | 36° |
| 2026-05-06 09:21 | -12.50963 | 130.85299 | 6864 ft | 250 kts | 59° |
| 2026-05-06 09:21 | -12.50366 | 130.86902 | 6701 ft | 238 kts | 86° |
| 2026-05-06 09:21 | -12.50452 | 130.88562 | 6483 ft | 234 kts | 105° |
| 2026-05-06 09:22 | -12.50936 | 130.90172 | 6253 ft | 240 kts | 110° |
| 2026-05-06 09:22 | -12.51511 | 130.91831 | 5969 ft | 248 kts | 110° |
| 2026-05-06 09:22 | -12.52094 | 130.93503 | 5673 ft | 249 kts | 110° |
| 2026-05-06 09:22 | -12.52662 | 130.95154 | 5387 ft | 249 kts | 110° |
| 2026-05-06 09:23 | -12.53229 | 130.96825 | 5107 ft | 249 kts | 110° |
| 2026-05-06 09:23 | -12.53780 | 130.98464 | 4831 ft | 248 kts | 110° |
| 2026-05-06 09:23 | -12.54340 | 131.00136 | 4536 ft | 248 kts | 110° |
| 2026-05-06 09:23 | -12.54900 | 131.01806 | 4254 ft | 248 kts | 109° |
| 2026-05-06 09:24 | -12.55165 | 131.03541 | 3944 ft | 251 kts | 85° |
| 2026-05-06 09:24 | -12.54577 | 131.05216 | 3678 ft | 255 kts | 59° |
| 2026-05-06 09:24 | -12.53318 | 131.06491 | 3497 ft | 256 kts | 36° |
| 2026-05-06 09:24 | -12.51692 | 131.07210 | 3390 ft | 252 kts | 22° |
| 2026-05-06 09:25 | -12.50567 | 131.07483 | 3280 ft | 252 kts | 6° |
| 2026-05-06 09:25 | -12.48433 | 131.06687 | 3132 ft | 248 kts | 314° |
| 2026-05-06 09:25 | -12.47757 | 131.05763 | 3072 ft | 243 kts | 300° |
| 2026-05-06 09:25 | -12.46994 | 131.04266 | 2985 ft | 232 kts | 294° |
| 2026-05-06 09:26 | -12.46384 | 131.02762 | 2733 ft | 227 kts | 288° |
| 2026-05-06 09:26 | -12.45876 | 131.01251 | 2452 ft | 222 kts | 287° |
| 2026-05-06 09:26 | -12.45386 | 130.99766 | 2181 ft | 218 kts | 287° |
| 2026-05-06 09:26 | -12.44902 | 130.98325 | 1888 ft | 210 kts | 288° |
| 2026-05-06 09:27 | -12.44440 | 130.96952 | 1629 ft | 198 kts | 287° |
| 2026-05-06 09:27 | -12.43877 | 130.95271 | 1321 ft | 181 kts | 287° |
| 2026-05-06 09:27 | -12.43602 | 130.94454 | 1152 ft | 178 kts | 288° |
| 2026-05-06 09:27 | -12.43205 | 130.93268 | 928 ft | 174 kts | 288° |
| 2026-05-06 09:28 | -12.42818 | 130.92118 | 733 ft | 168 kts | 288° |
| 2026-05-06 09:28 | -12.42445 | 130.91002 | 488 ft | 165 kts | 289° |
| 2026-05-06 09:28 | -12.42083 | 130.89927 | 302 ft | 160 kts | 288° |
| 2026-05-06 09:28 | -12.41722 | 130.88852 | 140 ft | 151 kts | 287° |
| 2026-05-06 09:29 | -12.41418 | 130.87942 | 127 ft | 109 kts | 289° |
| 2026-05-06 09:29 | -12.41277 | 130.87537 | 128 ft | 13 kts | 290° |
| 2026-05-06 09:29 | -12.41192 | 130.87531 | 126 ft | 15 kts | 24° |
| 2026-05-06 09:29 | -12.41096 | 130.87569 | 124 ft | 14 kts | 18° |
| 2026-05-06 09:30 | -12.41003 | 130.87603 | 127 ft | 14 kts | 27° |
| 2026-05-06 09:30 | -12.40955 | 130.87680 | 127 ft | 13 kts | 88° |
| 2026-05-06 09:30 | -12.40965 | 130.87751 | 125 ft | 4 kts | 94° |
| 2026-05-06 09:30 | -12.40958 | 130.87768 | 126 ft | 2 kts | 50° |
| 2026-05-06 09:31 | -12.40943 | 130.87774 | 123 ft | 2 kts | 15° |
| 2026-05-06 09:31 | -12.40927 | 130.87780 | 126 ft | 2 kts | 22° |
| 2026-05-06 09:31 | -12.40913 | 130.87785 | 126 ft | 2 kts | 21° |
| 2026-05-06 09:31 | -12.40904 | 130.87788 | 124 ft | 0 kts | 17° |
| 2026-05-06 09:32 | -12.40900 | 130.87789 | 124 ft | 1 kts | 17° |
| 2026-05-06 09:32 | -12.40897 | 130.87790 | 125 ft | 0 kts | 17° |